sensor_id;sensor_type;location;lat;lon;timestamp;pressure;altitude;pressure_sealevel;temperature;humidity
61026;BME280;46911;32.650;-16.902;2023-12-22T00:00:35;102592.47;;;16.93;71.59
61026;BME280;46911;32.650;-16.902;2023-12-22T00:02:36;102603.69;;;16.85;71.93
61026;BME280;46911;32.650;-16.902;2023-12-22T00:04:40;102587.28;;;16.75;72.02
61026;BME280;46911;32.650;-16.902;2023-12-22T00:06:41;102596.41;;;16.87;72.08
61026;BME280;46911;32.650;-16.902;2023-12-22T00:08:42;102585.63;;;16.72;72.45
61026;BME280;46911;32.650;-16.902;2023-12-22T00:10:43;102589.22;;;16.73;72.54
61026;BME280;46911;32.650;-16.902;2023-12-22T00:12:44;102599.78;;;16.62;72.92
61026;BME280;46911;32.650;-16.902;2023-12-22T00:14:47;102589.34;;;16.57;73.05
61026;BME280;46911;32.650;-16.902;2023-12-22T00:16:48;102578.34;;;16.46;72.97
61026;BME280;46911;32.650;-16.902;2023-12-22T00:18:49;102584.31;;;16.51;72.61
61026;BME280;46911;32.650;-16.902;2023-12-22T00:20:52;102577.19;;;16.50;72.76
61026;BME280;46911;32.650;-16.902;2023-12-22T00:22:53;102569.53;;;16.44;72.02
61026;BME280;46911;32.650;-16.902;2023-12-22T00:24:56;102568.50;;;16.73;69.74
61026;BME280;46911;32.650;-16.902;2023-12-22T00:26:57;102566.19;;;16.96;66.73
61026;BME280;46911;32.650;-16.902;2023-12-22T00:29:01;102552.25;;;16.89;67.29
61026;BME280;46911;32.650;-16.902;2023-12-22T00:31:01;102558.44;;;17.04;66.50
61026;BME280;46911;32.650;-16.902;2023-12-22T00:33:05;102559.81;;;16.97;67.34
61026;BME280;46911;32.650;-16.902;2023-12-22T00:35:07;102546.75;;;16.91;67.33
61026;BME280;46911;32.650;-16.902;2023-12-22T00:37:11;102550.78;;;16.84;67.37
61026;BME280;46911;32.650;-16.902;2023-12-22T00:39:12;102533.84;;;16.82;67.17
61026;BME280;46911;32.650;-16.902;2023-12-22T00:41:14;102547.88;;;16.87;63.09
61026;BME280;46911;32.650;-16.902;2023-12-22T00:43:17;102545.38;;;16.98;63.51
61026;BME280;46911;32.650;-16.902;2023-12-22T00:45:18;102545.56;;;16.95;64.15
61026;BME280;46911;32.650;-16.902;2023-12-22T00:47:22;102532.31;;;16.78;64.73
61026;BME280;46911;32.650;-16.902;2023-12-22T00:49:25;102530.22;;;16.68;65.62
61026;BME280;46911;32.650;-16.902;2023-12-22T00:51:29;102535.97;;;16.91;65.14
61026;BME280;46911;32.650;-16.902;2023-12-22T00:53:30;102543.75;;;16.96;65.00
61026;BME280;46911;32.650;-16.902;2023-12-22T00:55:33;102543.44;;;17.00;66.38
61026;BME280;46911;32.650;-16.902;2023-12-22T00:57:34;102532.88;;;16.97;66.49
61026;BME280;46911;32.650;-16.902;2023-12-22T00:59:40;102541.91;;;16.96;66.88
61026;BME280;46911;32.650;-16.902;2023-12-22T01:01:50;102500.63;;;16.81;64.50
61026;BME280;46911;32.650;-16.902;2023-12-22T01:03:58;102539.19;;;17.11;65.59
61026;BME280;46911;32.650;-16.902;2023-12-22T01:06:03;102529.47;;;17.08;66.45
61026;BME280;46911;32.650;-16.902;2023-12-22T01:08:04;102515.63;;;17.00;65.68
61026;BME280;46911;32.650;-16.902;2023-12-22T01:10:08;102511.81;;;16.89;65.64
61026;BME280;46911;32.650;-16.902;2023-12-22T01:12:09;102524.97;;;16.94;64.01
61026;BME280;46911;32.650;-16.902;2023-12-22T01:14:13;102532.41;;;16.90;64.07
61026;BME280;46911;32.650;-16.902;2023-12-22T01:16:14;102517.75;;;16.95;61.51
61026;BME280;46911;32.650;-16.902;2023-12-22T01:18:16;102519.84;;;17.04;63.27
61026;BME280;46911;32.650;-16.902;2023-12-22T01:20:17;102525.97;;;17.06;64.58
61026;BME280;46911;32.650;-16.902;2023-12-22T01:22:20;102516.38;;;16.87;64.96
61026;BME280;46911;32.650;-16.902;2023-12-22T01:24:25;102514.13;;;16.81;62.91
61026;BME280;46911;32.650;-16.902;2023-12-22T01:26:28;102514.50;;;16.89;63.13
61026;BME280;46911;32.650;-16.902;2023-12-22T01:28:29;102507.38;;;16.74;63.84
61026;BME280;46911;32.650;-16.902;2023-12-22T01:30:33;102493.78;;;16.48;64.84
61026;BME280;46911;32.650;-16.902;2023-12-22T01:32:36;102519.19;;;16.59;64.26
61026;BME280;46911;32.650;-16.902;2023-12-22T01:34:39;102519.66;;;16.65;64.12
61026;BME280;46911;32.650;-16.902;2023-12-22T01:36:43;102500.56;;;16.68;63.59
61026;BME280;46911;32.650;-16.902;2023-12-22T01:38:44;102506.41;;;16.75;62.16
61026;BME280;46911;32.650;-16.902;2023-12-22T01:40:47;102498.09;;;16.65;63.23
61026;BME280;46911;32.650;-16.902;2023-12-22T01:42:48;102481.75;;;16.54;62.69
61026;BME280;46911;32.650;-16.902;2023-12-22T01:44:51;102492.28;;;16.71;62.41
61026;BME280;46911;32.650;-16.902;2023-12-22T01:46:52;102490.75;;;16.67;64.71
61026;BME280;46911;32.650;-16.902;2023-12-22T01:48:53;102503.06;;;16.71;66.70
61026;BME280;46911;32.650;-16.902;2023-12-22T01:50:58;102488.59;;;16.60;66.00
61026;BME280;46911;32.650;-16.902;2023-12-22T01:52:59;102493.50;;;16.53;66.16
61026;BME280;46911;32.650;-16.902;2023-12-22T01:55:04;102492.03;;;16.62;67.70
61026;BME280;46911;32.650;-16.902;2023-12-22T01:57:09;102485.22;;;16.56;67.32
61026;BME280;46911;32.650;-16.902;2023-12-22T01:59:20;102493.19;;;16.57;64.35
61026;BME280;46911;32.650;-16.902;2023-12-22T02:01:22;102493.31;;;16.56;64.93
61026;BME280;46911;32.650;-16.902;2023-12-22T02:03:27;102492.06;;;16.47;65.91
61026;BME280;46911;32.650;-16.902;2023-12-22T02:05:28;102482.09;;;16.35;66.21
61026;BME280;46911;32.650;-16.902;2023-12-22T02:07:30;102484.03;;;16.33;65.92
61026;BME280;46911;32.650;-16.902;2023-12-22T02:09:32;102492.97;;;16.33;64.78
61026;BME280;46911;32.650;-16.902;2023-12-22T02:11:37;102457.75;;;16.36;61.89
61026;BME280;46911;32.650;-16.902;2023-12-22T02:13:38;102475.59;;;16.52;58.76
61026;BME280;46911;32.650;-16.902;2023-12-22T02:15:42;102479.84;;;16.56;58.62
61026;BME280;46911;32.650;-16.902;2023-12-22T02:19:48;102481.81;;;16.39;59.14
61026;BME280;46911;32.650;-16.902;2023-12-22T02:22:15;102479.09;;;16.39;60.36
61026;BME280;46911;32.650;-16.902;2023-12-22T02:24:16;102471.09;;;16.38;62.08
61026;BME280;46911;32.650;-16.902;2023-12-22T02:26:44;102482.66;;;16.40;62.78
61026;BME280;46911;32.650;-16.902;2023-12-22T02:28:48;102468.94;;;16.30;62.71
61026;BME280;46911;32.650;-16.902;2023-12-22T02:30:57;102474.44;;;16.14;62.37
61026;BME280;46911;32.650;-16.902;2023-12-22T02:33:04;102470.69;;;16.02;62.02
61026;BME280;46911;32.650;-16.902;2023-12-22T02:35:08;102479.34;;;16.08;61.93
61026;BME280;46911;32.650;-16.902;2023-12-22T02:37:10;102467.69;;;15.93;62.40
61026;BME280;46911;32.650;-16.902;2023-12-22T02:39:16;102468.09;;;15.86;62.63
61026;BME280;46911;32.650;-16.902;2023-12-22T02:41:19;102468.38;;;15.82;62.28
61026;BME280;46911;32.650;-16.902;2023-12-22T02:43:22;102476.97;;;15.72;62.90
61026;BME280;46911;32.650;-16.902;2023-12-22T02:45:23;102459.91;;;15.88;63.46
61026;BME280;46911;32.650;-16.902;2023-12-22T02:47:29;102445.09;;;15.95;62.05
61026;BME280;46911;32.650;-16.902;2023-12-22T02:49:33;102467.22;;;16.15;61.01
61026;BME280;46911;32.650;-16.902;2023-12-22T02:51:34;102463.84;;;16.11;60.50
61026;BME280;46911;32.650;-16.902;2023-12-22T02:53:37;102455.94;;;16.37;60.64
61026;BME280;46911;32.650;-16.902;2023-12-22T02:55:40;102461.00;;;16.42;60.97
61026;BME280;46911;32.650;-16.902;2023-12-22T02:57:41;102462.66;;;16.30;61.60
61026;BME280;46911;32.650;-16.902;2023-12-22T02:59:42;102447.97;;;16.21;59.31
61026;BME280;46911;32.650;-16.902;2023-12-22T03:01:51;102462.28;;;16.21;59.63
61026;BME280;46911;32.650;-16.902;2023-12-22T03:03:52;102460.28;;;16.11;59.99
61026;BME280;46911;32.650;-16.902;2023-12-22T03:05:55;102455.47;;;16.16;61.05
61026;BME280;46911;32.650;-16.902;2023-12-22T03:07:56;102456.34;;;16.16;61.74
61026;BME280;46911;32.650;-16.902;2023-12-22T03:09:57;102461.16;;;16.11;61.75
61026;BME280;46911;32.650;-16.902;2023-12-22T03:12:00;102460.28;;;16.25;61.93
61026;BME280;46911;32.650;-16.902;2023-12-22T03:14:04;102462.94;;;16.39;62.43
61026;BME280;46911;32.650;-16.902;2023-12-22T03:16:08;102473.91;;;16.36;63.80
61026;BME280;46911;32.650;-16.902;2023-12-22T03:18:09;102468.94;;;16.30;65.72
61026;BME280;46911;32.650;-16.902;2023-12-22T03:20:10;102467.94;;;16.31;63.69
61026;BME280;46911;32.650;-16.902;2023-12-22T03:22:11;102447.09;;;16.20;62.58
61026;BME280;46911;32.650;-16.902;2023-12-22T03:24:12;102461.13;;;16.26;60.31
61026;BME280;46911;32.650;-16.902;2023-12-22T03:26:13;102451.84;;;16.02;60.65
61026;BME280;46911;32.650;-16.902;2023-12-22T03:28:14;102466.47;;;15.98;60.76
61026;BME280;46911;32.650;-16.902;2023-12-22T03:30:15;102461.81;;;15.86;62.01
61026;BME280;46911;32.650;-16.902;2023-12-22T03:32:19;102472.03;;;15.81;62.33
61026;BME280;46911;32.650;-16.902;2023-12-22T03:34:25;102469.34;;;15.81;63.26
61026;BME280;46911;32.650;-16.902;2023-12-22T03:36:28;102469.47;;;15.78;63.98
61026;BME280;46911;32.650;-16.902;2023-12-22T03:38:30;102473.31;;;15.59;64.08
61026;BME280;46911;32.650;-16.902;2023-12-22T03:40:33;102486.28;;;15.67;63.64
61026;BME280;46911;32.650;-16.902;2023-12-22T03:42:36;102471.75;;;15.55;63.42
61026;BME280;46911;32.650;-16.902;2023-12-22T03:44:40;102475.34;;;15.55;63.56
61026;BME280;46911;32.650;-16.902;2023-12-22T03:46:43;102475.59;;;15.51;63.49
61026;BME280;46911;32.650;-16.902;2023-12-22T03:48:44;102458.38;;;15.39;63.85
61026;BME280;46911;32.650;-16.902;2023-12-22T03:50:45;102464.59;;;15.55;65.51
61026;BME280;46911;32.650;-16.902;2023-12-22T03:52:51;102465.66;;;15.67;65.48
61026;BME280;46911;32.650;-16.902;2023-12-22T03:54:56;102458.97;;;15.89;65.42
61026;BME280;46911;32.650;-16.902;2023-12-22T03:56:57;102415.84;;;16.18;61.70
61026;BME280;46911;32.650;-16.902;2023-12-22T03:58:58;102451.19;;;16.40;62.30
61026;BME280;46911;32.650;-16.902;2023-12-22T04:01:01;102455.47;;;16.30;63.15
61026;BME280;46911;32.650;-16.902;2023-12-22T04:03:05;102454.53;;;16.17;63.91
61026;BME280;46911;32.650;-16.902;2023-12-22T04:05:06;102448.28;;;16.02;64.81
61026;BME280;46911;32.650;-16.902;2023-12-22T04:07:07;102449.34;;;15.85;65.47
61026;BME280;46911;32.650;-16.902;2023-12-22T04:09:07;102456.22;;;15.74;65.83
61026;BME280;46911;32.650;-16.902;2023-12-22T04:11:11;102448.16;;;15.60;66.03
61026;BME280;46911;32.650;-16.902;2023-12-22T04:13:13;102438.25;;;15.75;67.48
61026;BME280;46911;32.650;-16.902;2023-12-22T04:15:14;102420.91;;;15.81;64.68
61026;BME280;46911;32.650;-16.902;2023-12-22T04:17:17;102433.31;;;15.83;63.61
61026;BME280;46911;32.650;-16.902;2023-12-22T04:19:18;102442.28;;;16.11;64.31
61026;BME280;46911;32.650;-16.902;2023-12-22T04:21:19;102419.72;;;16.14;63.68
61026;BME280;46911;32.650;-16.902;2023-12-22T04:23:20;102415.97;;;16.02;63.81
61026;BME280;46911;32.650;-16.902;2023-12-22T04:25:21;102431.66;;;15.95;64.36
61026;BME280;46911;32.650;-16.902;2023-12-22T04:27:23;102425.41;;;15.80;64.65
61026;BME280;46911;32.650;-16.902;2023-12-22T04:29:24;102433.66;;;15.77;64.78
61026;BME280;46911;32.650;-16.902;2023-12-22T04:31:28;102417.81;;;15.58;65.22
61026;BME280;46911;32.650;-16.902;2023-12-22T04:33:29;102426.81;;;15.57;65.71
61026;BME280;46911;32.650;-16.902;2023-12-22T04:35:30;102422.41;;;15.56;66.04
61026;BME280;46911;32.650;-16.902;2023-12-22T04:37:31;102421.53;;;15.55;65.94
61026;BME280;46911;32.650;-16.902;2023-12-22T04:39:32;102425.84;;;15.72;65.34
61026;BME280;46911;32.650;-16.902;2023-12-22T04:41:33;102423.41;;;15.98;64.55
61026;BME280;46911;32.650;-16.902;2023-12-22T04:43:34;102419.72;;;16.14;64.78
61026;BME280;46911;32.650;-16.902;2023-12-22T04:45:34;102426.66;;;16.03;64.84
61026;BME280;46911;32.650;-16.902;2023-12-22T04:47:35;102426.66;;;15.89;65.41
61026;BME280;46911;32.650;-16.902;2023-12-22T04:49:36;102414.94;;;15.76;65.64
61026;BME280;46911;32.650;-16.902;2023-12-22T04:51:37;102411.28;;;15.62;65.95
61026;BME280;46911;32.650;-16.902;2023-12-22T04:53:38;102409.81;;;15.56;66.00
61026;BME280;46911;32.650;-16.902;2023-12-22T04:55:42;102394.44;;;15.44;66.27
61026;BME280;46911;32.650;-16.902;2023-12-22T04:57:46;102409.41;;;15.48;65.93
61026;BME280;46911;32.650;-16.902;2023-12-22T04:59:49;102417.00;;;15.42;66.07
61026;BME280;46911;32.650;-16.902;2023-12-22T05:01:50;102420.47;;;15.44;65.33
61026;BME280;46911;32.650;-16.902;2023-12-22T05:03:51;102404.91;;;15.34;65.64
61026;BME280;46911;32.650;-16.902;2023-12-22T05:05:54;102414.78;;;15.34;65.55
61026;BME280;46911;32.650;-16.902;2023-12-22T05:07:55;102414.22;;;15.29;65.79
61026;BME280;46911;32.650;-16.902;2023-12-22T05:09:56;102407.38;;;15.23;66.10
61026;BME280;46911;32.650;-16.902;2023-12-22T05:11:57;102397.44;;;15.39;61.66
61026;BME280;46911;32.650;-16.902;2023-12-22T05:14:02;102392.63;;;15.59;61.46
61026;BME280;46911;32.650;-16.902;2023-12-22T05:16:03;102397.41;;;15.68;61.41
61026;BME280;46911;32.650;-16.902;2023-12-22T05:18:08;102400.88;;;15.70;62.04
61026;BME280;46911;32.650;-16.902;2023-12-22T05:20:09;102395.03;;;15.78;62.22
61026;BME280;46911;32.650;-16.902;2023-12-22T05:22:10;102403.38;;;15.73;62.68
61026;BME280;46911;32.650;-16.902;2023-12-22T05:24:11;102397.03;;;15.60;63.17
61026;BME280;46911;32.650;-16.902;2023-12-22T05:26:17;102399.25;;;15.53;63.63
61026;BME280;46911;32.650;-16.902;2023-12-22T05:28:18;102396.19;;;15.45;64.50
61026;BME280;46911;32.650;-16.902;2023-12-22T05:30:19;102398.19;;;15.42;65.30
61026;BME280;46911;32.650;-16.902;2023-12-22T05:32:20;102386.91;;;15.20;65.38
61026;BME280;46911;32.650;-16.902;2023-12-22T05:34:21;102395.97;;;15.19;65.39
61026;BME280;46911;32.650;-16.902;2023-12-22T05:36:22;102390.47;;;15.21;65.34
61026;BME280;46911;32.650;-16.902;2023-12-22T05:38:27;102377.22;;;15.32;65.54
61026;BME280;46911;32.650;-16.902;2023-12-22T05:40:31;102380.69;;;15.63;64.79
61026;BME280;46911;32.650;-16.902;2023-12-22T05:42:35;102379.38;;;15.56;64.92
61026;BME280;46911;32.650;-16.902;2023-12-22T05:44:39;102369.00;;;15.64;63.13
61026;BME280;46911;32.650;-16.902;2023-12-22T05:46:40;102383.22;;;15.66;63.01
61026;BME280;46911;32.650;-16.902;2023-12-22T05:48:41;102381.28;;;15.68;64.34
61026;BME280;46911;32.650;-16.902;2023-12-22T05:50:45;102371.69;;;15.64;65.05
61026;BME280;46911;32.650;-16.902;2023-12-22T05:52:46;102379.47;;;15.69;64.95
61026;BME280;46911;32.650;-16.902;2023-12-22T05:54:52;102372.72;;;15.62;65.40
61026;BME280;46911;32.650;-16.902;2023-12-22T05:56:57;102358.22;;;15.50;66.14
61026;BME280;46911;32.650;-16.902;2023-12-22T05:59:00;102361.13;;;15.47;66.88
61026;BME280;46911;32.650;-16.902;2023-12-22T06:01:04;102361.31;;;15.44;67.17
61026;BME280;46911;32.650;-16.902;2023-12-22T06:03:07;102366.00;;;15.40;67.96
61026;BME280;46911;32.650;-16.902;2023-12-22T06:05:08;102361.31;;;15.44;67.82
61026;BME280;46911;32.650;-16.902;2023-12-22T06:07:10;102360.44;;;15.29;68.24
61026;BME280;46911;32.650;-16.902;2023-12-22T06:09:14;102362.06;;;15.17;68.57
61026;BME280;46911;32.650;-16.902;2023-12-22T06:11:17;102348.97;;;14.96;68.74
61026;BME280;46911;32.650;-16.902;2023-12-22T06:13:18;102359.13;;;14.91;69.14
61026;BME280;46911;32.650;-16.902;2023-12-22T06:15:19;102374.84;;;14.83;69.54
61026;BME280;46911;32.650;-16.902;2023-12-22T06:17:26;102374.44;;;14.75;70.14
61026;BME280;46911;32.650;-16.902;2023-12-22T06:19:29;102382.84;;;14.68;70.38
61026;BME280;46911;32.650;-16.902;2023-12-22T06:21:33;102376.94;;;14.62;70.61
61026;BME280;46911;32.650;-16.902;2023-12-22T06:23:39;102364.22;;;14.49;70.49
61026;BME280;46911;32.650;-16.902;2023-12-22T06:25:43;102381.97;;;14.52;70.68
61026;BME280;46911;32.650;-16.902;2023-12-22T06:27:46;102381.88;;;14.53;71.06
61026;BME280;46911;32.650;-16.902;2023-12-22T06:29:47;102379.69;;;14.46;70.92
61026;BME280;46911;32.650;-16.902;2023-12-22T06:31:48;102386.66;;;14.48;70.83
61026;BME280;46911;32.650;-16.902;2023-12-22T06:33:53;102409.22;;;14.46;71.08
61026;BME280;46911;32.650;-16.902;2023-12-22T06:35:54;102420.19;;;14.41;71.05
61026;BME280;46911;32.650;-16.902;2023-12-22T06:37:55;102417.94;;;14.33;71.38
61026;BME280;46911;32.650;-16.902;2023-12-22T06:39:56;102408.41;;;14.28;71.30
61026;BME280;46911;32.650;-16.902;2023-12-22T06:42:00;102403.25;;;14.25;71.44
61026;BME280;46911;32.650;-16.902;2023-12-22T06:44:01;102409.56;;;14.23;71.60
61026;BME280;46911;32.650;-16.902;2023-12-22T06:46:02;102398.38;;;14.15;71.61
61026;BME280;46911;32.650;-16.902;2023-12-22T06:48:06;102403.47;;;14.20;71.77
61026;BME280;46911;32.650;-16.902;2023-12-22T06:50:07;102397.50;;;14.15;72.30
61026;BME280;46911;32.650;-16.902;2023-12-22T06:52:13;102419.69;;;14.18;72.38
61026;BME280;46911;32.650;-16.902;2023-12-22T06:54:14;102412.75;;;14.14;72.27
61026;BME280;46911;32.650;-16.902;2023-12-22T06:58:22;102416.66;;;14.09;72.09
61026;BME280;46911;32.650;-16.902;2023-12-22T07:00:28;102412.03;;;14.11;72.53
61026;BME280;46911;32.650;-16.902;2023-12-22T07:02:31;102411.91;;;14.14;72.55
61026;BME280;46911;32.650;-16.902;2023-12-22T07:04:32;102399.13;;;14.01;72.48
61026;BME280;46911;32.650;-16.902;2023-12-22T07:06:34;102415.09;;;14.04;72.64
61026;BME280;46911;32.650;-16.902;2023-12-22T07:08:35;102412.47;;;14.03;73.01
61026;BME280;46911;32.650;-16.902;2023-12-22T07:10:36;102425.97;;;14.01;73.21
61026;BME280;46911;32.650;-16.902;2023-12-22T07:12:39;102420.69;;;14.00;73.60
61026;BME280;46911;32.650;-16.902;2023-12-22T07:14:40;102427.09;;;13.97;73.68
61026;BME280;46911;32.650;-16.902;2023-12-22T07:16:44;102410.56;;;13.89;73.63
61026;BME280;46911;32.650;-16.902;2023-12-22T07:18:45;102422.66;;;13.96;73.88
61026;BME280;46911;32.650;-16.902;2023-12-22T07:20:46;102421.72;;;13.97;73.68
61026;BME280;46911;32.650;-16.902;2023-12-22T07:22:47;102421.72;;;13.97;73.94
61026;BME280;46911;32.650;-16.902;2023-12-22T07:24:51;102426.78;;;14.03;73.61
61026;BME280;46911;32.650;-16.902;2023-12-22T07:26:56;102380.53;;;13.82;73.77
61026;BME280;46911;32.650;-16.902;2023-12-22T07:28:57;102436.19;;;14.11;73.54
61026;BME280;46911;32.650;-16.902;2023-12-22T07:31:00;102437.22;;;14.08;73.35
61026;BME280;46911;32.650;-16.902;2023-12-22T07:33:03;102444.97;;;14.14;73.25
61026;BME280;46911;32.650;-16.902;2023-12-22T07:35:05;102445.03;;;14.13;73.33
61026;BME280;46911;32.650;-16.902;2023-12-22T07:37:06;102442.00;;;14.19;73.09
61026;BME280;46911;32.650;-16.902;2023-12-22T07:39:07;102441.84;;;14.22;72.90
61026;BME280;46911;32.650;-16.902;2023-12-22T07:41:13;102436.13;;;14.28;73.04
61026;BME280;46911;32.650;-16.902;2023-12-22T07:43:14;102436.47;;;14.38;72.73
61026;BME280;46911;32.650;-16.902;2023-12-22T07:45:15;102439.59;;;14.46;72.78
61026;BME280;46911;32.650;-16.902;2023-12-22T07:47:16;102444.91;;;14.64;72.17
61026;BME280;46911;32.650;-16.902;2023-12-22T07:49:17;102452.53;;;14.71;71.36
61026;BME280;46911;32.650;-16.902;2023-12-22T07:51:18;102443.31;;;14.76;70.47
61026;BME280;46911;32.650;-16.902;2023-12-22T07:53:21;102436.53;;;14.84;70.08
61026;BME280;46911;32.650;-16.902;2023-12-22T07:55:22;102461.72;;;14.98;69.66
61026;BME280;46911;32.650;-16.902;2023-12-22T07:57:23;102455.44;;;15.13;69.41
61026;BME280;46911;32.650;-16.902;2023-12-22T07:59:24;102441.91;;;15.15;69.20
61026;BME280;46911;32.650;-16.902;2023-12-22T08:01:25;102438.19;;;15.17;69.31
61026;BME280;46911;32.650;-16.902;2023-12-22T08:03:28;102437.50;;;15.14;69.60
61026;BME280;46911;32.650;-16.902;2023-12-22T08:05:29;102451.63;;;15.17;69.50
61026;BME280;46911;32.650;-16.902;2023-12-22T08:07:36;102440.78;;;15.19;69.44
61026;BME280;46911;32.650;-16.902;2023-12-22T08:09:39;102428.22;;;15.19;69.23
61026;BME280;46911;32.650;-16.902;2023-12-22T08:11:42;102440.31;;;15.27;69.36
61026;BME280;46911;32.650;-16.902;2023-12-22T08:13:47;102437.38;;;15.31;68.84
61026;BME280;46911;32.650;-16.902;2023-12-22T08:15:48;102435.94;;;15.40;69.05
61026;BME280;46911;32.650;-16.902;2023-12-22T08:17:53;102439.09;;;15.47;69.17
61026;BME280;46911;32.650;-16.902;2023-12-22T08:19:57;102437.94;;;15.51;69.06
61026;BME280;46911;32.650;-16.902;2023-12-22T08:22:00;102430.28;;;15.59;68.83
61026;BME280;46911;32.650;-16.902;2023-12-22T08:24:01;102431.63;;;15.66;68.78
61026;BME280;46911;32.650;-16.902;2023-12-22T08:26:02;102439.59;;;15.68;68.83
61026;BME280;46911;32.650;-16.902;2023-12-22T08:28:03;102427.22;;;15.65;68.62
61026;BME280;46911;32.650;-16.902;2023-12-22T08:30:05;102426.16;;;15.68;68.68
61026;BME280;46911;32.650;-16.902;2023-12-22T08:32:06;102428.00;;;15.67;68.47
61026;BME280;46911;32.650;-16.902;2023-12-22T08:34:07;102431.06;;;15.76;68.08
61026;BME280;46911;32.650;-16.902;2023-12-22T08:36:13;102419.94;;;15.82;67.77
61026;BME280;46911;32.650;-16.902;2023-12-22T08:38:14;102426.94;;;15.84;67.56
61026;BME280;46911;32.650;-16.902;2023-12-22T08:40:16;102420.34;;;15.90;67.67
61026;BME280;46911;32.650;-16.902;2023-12-22T08:42:19;102424.56;;;15.94;67.48
61026;BME280;46911;32.650;-16.902;2023-12-22T08:44:23;102433.00;;;16.02;67.37
61026;BME280;46911;32.650;-16.902;2023-12-22T08:46:28;102432.69;;;16.07;67.03
61026;BME280;46911;32.650;-16.902;2023-12-22T08:48:35;102438.66;;;16.12;67.17
61026;BME280;46911;32.650;-16.902;2023-12-22T08:50:36;102417.91;;;16.14;66.66
61026;BME280;46911;32.650;-16.902;2023-12-22T08:52:37;102439.34;;;16.43;66.07
61026;BME280;46911;32.650;-16.902;2023-12-22T08:54:38;102440.97;;;16.46;65.80
61026;BME280;46911;32.650;-16.902;2023-12-22T08:56:41;102441.75;;;16.48;65.32
61026;BME280;46911;32.650;-16.902;2023-12-22T08:58:45;102447.41;;;16.57;65.26
61026;BME280;46911;32.650;-16.902;2023-12-22T09:00:46;102447.28;;;16.59;65.03
61026;BME280;46911;32.650;-16.902;2023-12-22T09:02:47;102459.44;;;16.79;64.75
61026;BME280;46911;32.650;-16.902;2023-12-22T09:04:50;102462.59;;;16.86;63.93
61026;BME280;46911;32.650;-16.902;2023-12-22T09:06:51;102460.38;;;16.93;63.67
61026;BME280;46911;32.650;-16.902;2023-12-22T09:08:55;102453.41;;;17.03;63.33
61026;BME280;46911;32.650;-16.902;2023-12-22T09:10:58;102457.84;;;17.17;63.34
61026;BME280;46911;32.650;-16.902;2023-12-22T09:12:59;102458.72;;;17.30;62.81
61026;BME280;46911;32.650;-16.902;2023-12-22T09:15:03;102447.22;;;17.41;62.60
61026;BME280;46911;32.650;-16.902;2023-12-22T09:17:04;102446.78;;;17.60;60.80
61026;BME280;46911;32.650;-16.902;2023-12-22T09:19:10;102443.78;;;17.52;60.72
61026;BME280;46911;32.650;-16.902;2023-12-22T09:21:13;102456.25;;;17.91;60.86
61026;BME280;46911;32.650;-16.902;2023-12-22T09:23:20;102443.84;;;18.15;60.19
61026;BME280;46911;32.650;-16.902;2023-12-22T09:25:23;102450.34;;;18.49;59.83
61026;BME280;46911;32.650;-16.902;2023-12-22T09:27:24;102456.59;;;18.74;59.51
61026;BME280;46911;32.650;-16.902;2023-12-22T09:29:30;102451.13;;;18.87;58.57
61026;BME280;46911;32.650;-16.902;2023-12-22T09:31:34;102453.69;;;19.01;57.47
61026;BME280;46911;32.650;-16.902;2023-12-22T09:33:35;102462.66;;;19.02;57.48
61026;BME280;46911;32.650;-16.902;2023-12-22T09:35:36;102466.97;;;19.04;57.45
61026;BME280;46911;32.650;-16.902;2023-12-22T09:37:37;102460.09;;;19.12;57.02
61026;BME280;46911;32.650;-16.902;2023-12-22T09:39:38;102460.03;;;19.24;56.51
61026;BME280;46911;32.650;-16.902;2023-12-22T09:41:43;102462.16;;;19.44;56.00
61026;BME280;46911;32.650;-16.902;2023-12-22T09:43:49;102460.84;;;19.61;54.69
61026;BME280;46911;32.650;-16.902;2023-12-22T09:45:56;102465.91;;;19.77;53.03
61026;BME280;46911;32.650;-16.902;2023-12-22T09:47:59;102467.91;;;20.09;53.30
61026;BME280;46911;32.650;-16.902;2023-12-22T09:50:01;102464.38;;;20.52;51.77
61026;BME280;46911;32.650;-16.902;2023-12-22T09:52:06;102460.59;;;20.87;50.45
61026;BME280;46911;32.650;-16.902;2023-12-22T09:54:08;102455.31;;;21.18;50.31
61026;BME280;46911;32.650;-16.902;2023-12-22T09:56:10;102461.50;;;21.30;49.72
61026;BME280;46911;32.650;-16.902;2023-12-22T09:58:15;102466.53;;;21.34;49.87
61026;BME280;46911;32.650;-16.902;2023-12-22T10:00:17;102467.53;;;21.33;50.38
61026;BME280;46911;32.650;-16.902;2023-12-22T10:02:19;102464.34;;;21.28;50.20
61026;BME280;46911;32.650;-16.902;2023-12-22T10:04:23;102467.34;;;21.25;50.12
61026;BME280;46911;32.650;-16.902;2023-12-22T10:06:29;102470.00;;;21.57;49.04
61026;BME280;46911;32.650;-16.902;2023-12-22T10:08:32;102469.97;;;21.79;48.62
61026;BME280;46911;32.650;-16.902;2023-12-22T10:10:34;102477.00;;;21.60;48.23
61026;BME280;46911;32.650;-16.902;2023-12-22T10:12:41;102477.19;;;21.68;48.35
61026;BME280;46911;32.650;-16.902;2023-12-22T10:14:47;102484.63;;;21.66;48.15
61026;BME280;46911;32.650;-16.902;2023-12-22T10:16:50;102487.59;;;21.63;48.43
61026;BME280;46911;32.650;-16.902;2023-12-22T10:18:55;102504.44;;;21.78;47.76
61026;BME280;46911;32.650;-16.902;2023-12-22T10:20:55;102510.13;;;22.06;47.70
61026;BME280;46911;32.650;-16.902;2023-12-22T10:22:59;102505.38;;;23.48;45.53
61026;BME280;46911;32.650;-16.902;2023-12-22T10:24:59;102483.16;;;25.28;41.71
61026;BME280;46911;32.650;-16.902;2023-12-22T10:27:00;102501.34;;;26.67;38.20
61026;BME280;46911;32.650;-16.902;2023-12-22T10:29:06;102510.47;;;26.93;36.69